Time;durP1;ratioP1;P1;durP2;ratioP2;P2;SDS_P1;SDS_P2;PMS_P1;PMS_P2;Temp;Humidity;BMP_temperature;BMP_pressure;BME280_temperature;BME280_humidity;BME280_pressure;Samples;Min_cycle;Max_cycle;Signal;HPM_P1;HPM_P2
2023/02/27 00:00:14;;;;;;;4.00;3.70;;;;;;;;;;5064560;28;20038;-74
2023/02/27 00:02:41;;;;;;;4.95;4.55;;;;;;;;;;5101229;28;20494;-74
2023/02/27 00:05:07;;;;;;;4.07;3.78;;;;;;;;;;5080427;28;20028;-74
2023/02/27 00:07:33;;;;;;;4.72;4.32;;;;;;;;;;5072552;28;20031;-73
2023/02/27 00:09:59;;;;;;;4.45;4.15;;;;;;;;;;5079153;28;20040;-73
2023/02/27 00:12:25;;;;;;;4.93;4.53;;;;;;;;;;5098023;28;20086;-73
2023/02/27 00:14:52;;;;;;;4.15;3.85;;;;;;;;;;5080809;28;20028;-74
2023/02/27 00:17:18;;;;;;;4.25;3.88;;;;;;;;;;5064372;28;20092;-72
2023/02/27 00:19:44;;;;;;;4.53;3.58;;;;;;;;;;5079707;28;20027;-74
2023/02/27 00:22:10;;;;;;;4.20;3.90;;;;;;;;;;5070811;28;20040;-73
2023/02/27 00:24:36;;;;;;;4.32;4.03;;;;;;;;;;5088523;28;20329;-73
2023/02/27 00:27:02;;;;;;;6.18;5.78;;;;;;;;;;5088534;28;20051;-74
2023/02/27 00:29:28;;;;;;;5.25;4.75;;;;;;;;;;5069774;28;20066;-72
2023/02/27 00:31:54;;;;;;;3.75;3.45;;;;;;;;;;5036905;28;20488;-73
2023/02/27 00:34:21;;;;;;;4.60;4.30;;;;;;;;;;5070089;28;20441;-73
2023/02/27 00:36:47;;;;;;;3.40;3.20;;;;;;;;;;5088079;28;20051;-73
2023/02/27 00:39:14;;;;;;;4.25;3.95;;;;;;;;;;5087650;28;20039;-73
2023/02/27 00:41:40;;;;;;;8.85;4.53;;;;;;;;;;5069946;28;20161;-73
2023/02/27 00:44:06;;;;;;;5.80;5.30;;;;;;;;;;5054478;28;20036;-74
2023/02/27 00:46:32;;;;;;;4.55;4.22;;;;;;;;;;5071600;28;20723;-73
2023/02/27 00:48:59;;;;;;;5.15;4.85;;;;;;;;;;5089850;28;20523;-74
2023/02/27 00:51:25;;;;;;;4.32;4.03;;;;;;;;;;5091695;28;20048;-73
2023/02/27 00:53:51;;;;;;;5.55;4.70;;;;;;;;;;5092023;28;20099;-72
2023/02/27 00:56:18;;;;;;;5.55;5.15;;;;;;;;;;5091740;28;20047;-74
2023/02/27 00:58:44;;;;;;;3.90;3.65;;;;;;;;;;5091726;28;20406;-73
2023/02/27 01:01:10;;;;;;;4.53;4.22;;;;;;;;;;5091570;28;20119;-74
2023/02/27 01:03:36;;;;;;;4.22;3.83;;;;;;;;;;5109741;28;20058;-74
2023/02/27 01:06:03;;;;;;;5.53;5.13;;;;;;;;;;5091074;28;20031;-73
2023/02/27 01:08:28;;;;;;;5.13;4.72;;;;;;;;;;5075026;28;20468;-72
2023/02/27 01:10:55;;;;;;;3.85;3.55;;;;;;;;;;5074676;28;20438;-73
2023/02/27 01:13:21;;;;;;;4.97;4.50;;;;;;;;;;5091457;28;20027;-73
2023/02/27 01:15:47;;;;;;;4.95;4.55;;;;;;;;;;5091656;28;20032;-73
2023/02/27 01:18:13;;;;;;;5.60;5.20;;;;;;;;;;5109871;28;20118;-73
2023/02/27 01:20:39;;;;;;;4.82;4.53;;;;;;;;;;5109651;28;20062;-72
2023/02/27 01:23:05;;;;;;;3.47;3.28;;;;;;;;;;5091452;28;20043;-73
2023/02/27 01:25:31;;;;;;;5.40;5.00;;;;;;;;;;5091734;28;20557;-73
2023/02/27 01:27:57;;;;;;;5.35;4.85;;;;;;;;;;5111888;28;20028;-73
2023/02/27 01:30:23;;;;;;;4.28;3.97;;;;;;;;;;5095326;28;20100;-74
2023/02/27 01:32:49;;;;;;;5.15;4.65;;;;;;;;;;5095264;28;20121;-73
2023/02/27 01:35:15;;;;;;;4.88;4.53;;;;;;;;;;5078370;28;20036;-74
2023/02/27 01:37:41;;;;;;;4.82;4.43;;;;;;;;;;5061916;28;20024;-75
2023/02/27 01:40:08;;;;;;;5.15;4.68;;;;;;;;;;5113433;28;20111;-74
2023/02/27 01:42:34;;;;;;;6.03;4.57;;;;;;;;;;5095450;28;20047;-73
2023/02/27 01:45:15;;;;;;;4.93;4.53;;;;;;;;;;5095550;28;20035;-74
2023/02/27 01:47:42;;;;;;;6.03;4.85;;;;;;;;;;5095397;28;20028;-74
2023/02/27 01:50:10;;;;;;;4.72;4.35;;;;;;;;;;5094966;28;20131;-74
2023/02/27 01:52:36;;;;;;;5.80;5.40;;;;;;;;;;5076188;28;20032;-72
2023/02/27 01:55:03;;;;;;;5.00;4.50;;;;;;;;;;5075796;28;20038;-73
2023/02/27 01:57:30;;;;;;;4.95;4.57;;;;;;;;;;5096135;28;20119;-74
2023/02/27 01:59:56;;;;;;;5.80;5.30;;;;;;;;;;5076196;28;20182;-72
2023/02/27 02:02:24;;;;;;;5.03;4.65;;;;;;;;;;5075765;28;20028;-74
2023/02/27 02:04:50;;;;;;;6.03;5.55;;;;;;;;;;5074476;28;20148;-75
2023/02/27 02:07:18;;;;;;;5.15;4.75;;;;;;;;;;5056836;28;20053;-73
2023/02/27 02:09:45;;;;;;;5.15;4.75;;;;;;;;;;5091392;28;20415;-73
2023/02/27 02:12:12;;;;;;;6.93;6.43;;;;;;;;;;5091346;28;20097;-73
2023/02/27 02:14:42;;;;;;;5.53;5.10;;;;;;;;;;5073443;28;20024;-74
2023/02/27 02:17:13;;;;;;;5.93;5.43;;;;;;;;;;5056092;28;20126;-74
2023/02/27 02:19:45;;;;;;;6.53;4.72;;;;;;;;;;5091384;28;20071;-74
2023/02/27 02:22:30;;;;;;;4.97;4.57;;;;;;;;;;5072974;28;20163;-75
2023/02/27 02:25:04;;;;;;;6.47;5.88;;;;;;;;;;5073447;28;20036;-75
2023/02/27 02:27:49;;;;;;;4.82;4.47;;;;;;;;;;5073298;28;20143;-74
2023/02/27 02:30:33;;;;;;;5.90;5.40;;;;;;;;;;5073014;28;20071;-73
2023/02/27 02:33:20;;;;;;;4.82;4.47;;;;;;;;;;5073141;28;20040;-73
2023/02/27 02:36:05;;;;;;;4.30;4.03;;;;;;;;;;5072949;28;20596;-74
2023/02/27 02:38:34;;;;;;;6.53;6.13;;;;;;;;;;5072198;28;20075;-74
2023/02/27 02:41:00;;;;;;;4.97;4.60;;;;;;;;;;5073259;28;20122;-75
2023/02/27 02:43:28;;;;;;;6.32;5.82;;;;;;;;;;5072865;28;20132;-74
2023/02/27 02:45:57;;;;;;;7.10;6.50;;;;;;;;;;5056029;28;20577;-74
2023/02/27 02:48:33;;;;;;;4.22;3.92;;;;;;;;;;5073048;28;20577;-74
2023/02/27 02:51:18;;;;;;;6.00;4.05;;;;;;;;;;5072699;28;20074;-74
2023/02/27 02:53:54;;;;;;;6.97;6.28;;;;;;;;;;5090858;28;20438;-74
2023/02/27 02:56:21;;;;;;;5.40;4.88;;;;;;;;;;5090675;28;20032;-74
2023/02/27 02:58:51;;;;;;;6.18;5.57;;;;;;;;;;5072779;28;20480;-74
2023/02/27 03:01:19;;;;;;;5.25;4.75;;;;;;;;;;5072803;28;20031;-74
2023/02/27 03:03:52;;;;;;;5.35;4.95;;;;;;;;;;5073399;28;20143;-76
2023/02/27 03:06:19;;;;;;;6.70;4.80;;;;;;;;;;5073356;28;20036;-74
2023/02/27 03:08:48;;;;;;;4.38;4.00;;;;;;;;;;5073860;28;20040;-76
2023/02/27 03:11:14;;;;;;;5.70;5.30;;;;;;;;;;5091793;28;20050;-75
2023/02/27 03:13:50;;;;;;;4.85;4.45;;;;;;;;;;5091781;28;20500;-76
2023/02/27 03:16:21;;;;;;;5.20;4.72;;;;;;;;;;5073269;28;20577;-74
2023/02/27 03:18:47;;;;;;;;;;;;;;;;;;5040750;28;20056;-73
2023/02/27 03:21:15;;;;;;;4.68;4.38;;;;;;;;;;5091187;28;19958;-73
2023/02/27 03:23:44;;;;;;;5.40;5.00;;;;;;;;;;5105345;28;20036;-72
2023/02/27 03:26:12;;;;;;;5.30;4.90;;;;;;;;;;5105283;28;20027;-74
2023/02/27 03:28:41;;;;;;;5.15;4.65;;;;;;;;;;5084709;28;20020;-73
2023/02/27 03:31:08;;;;;;;4.68;3.72;;;;;;;;;;5083873;28;20085;-73
2023/02/27 03:33:38;;;;;;;4.32;4.03;;;;;;;;;;5082387;28;20070;-74
2023/02/27 03:36:16;;;;;;;3.47;3.28;;;;;;;;;;5068913;28;20035;-73
2023/02/27 03:38:44;;;;;;;4.50;4.13;;;;;;;;;;5059656;28;20503;-74
2023/02/27 03:41:14;;;;;;;4.93;4.53;;;;;;;;;;5076155;28;20031;-74
2023/02/27 03:44:06;;;;;;;5.25;4.72;;;;;;;;;;5092887;28;20130;-73
2023/02/27 03:46:32;;;;;;;6.18;5.65;;;;;;;;;;5092838;28;20097;-74
2023/02/27 03:48:58;;;;;;;5.30;4.88;;;;;;;;;;5057424;28;20082;-73
2023/02/27 03:51:26;;;;;;;5.05;4.68;;;;;;;;;;5058289;28;20075;-73
2023/02/27 03:54:08;;;;;;;3.88;3.40;;;;;;;;;;5071256;28;20043;-74
2023/02/27 03:56:37;;;;;;;6.47;6.03;;;;;;;;;;5071241;28;20090;-73
2023/02/27 03:59:04;;;;;;;5.47;5.03;;;;;;;;;;5070470;28;20036;-74
2023/02/27 04:01:30;;;;;;;4.68;4.15;;;;;;;;;;5064825;28;20114;-74
2023/02/27 04:03:57;;;;;;;3.97;3.67;;;;;;;;;;5075863;28;20073;-73
2023/02/27 04:07:24;;;;;;;6.43;5.93;;;;;;;;;;5081011;28;20028;-74
2023/02/27 04:10:09;;;;;;;5.43;5.03;;;;;;;;;;5090230;28;20048;-73
2023/02/27 04:12:53;;;;;;;5.68;5.07;;;;;;;;;;5062066;28;20138;-75
2023/02/27 04:15:29;;;;;;;5.20;4.70;;;;;;;;;;5082105;28;20046;-72
2023/02/27 04:18:07;;;;;;;4.25;3.95;;;;;;;;;;5103217;28;20036;-73
2023/02/27 04:20:35;;;;;;;7.65;6.78;;;;;;;;;;5072497;28;20115;-73
2023/02/27 04:23:03;;;;;;;7.60;7.05;;;;;;;;;;5085387;28;20046;-72
2023/02/27 04:25:29;;;;;;;6.95;6.43;;;;;;;;;;5087002;28;20028;-73
2023/02/27 04:28:16;;;;;;;6.03;5.53;;;;;;;;;;5096996;28;20385;-73
2023/02/27 04:31:14;;;;;;;5.03;4.63;;;;;;;;;;5087912;28;20051;-73
2023/02/27 04:33:45;;;;;;;3.72;3.53;;;;;;;;;;5096507;28;20040;-73
2023/02/27 04:36:13;;;;;;;4.00;3.65;;;;;;;;;;5089657;28;20119;-74
2023/02/27 04:38:44;;;;;;;5.05;4.65;;;;;;;;;;5073889;28;20036;-73
2023/02/27 04:41:10;;;;;;;5.80;5.35;;;;;;;;;;5092059;28;20027;-73
2023/02/27 04:43:38;;;;;;;5.45;4.95;;;;;;;;;;5091543;28;20072;-72
2023/02/27 04:46:04;;;;;;;6.95;6.35;;;;;;;;;;5074838;28;20035;-74
2023/02/27 04:48:35;;;;;;;7.47;6.97;;;;;;;;;;5074542;28;20131;-73
2023/02/27 04:51:27;;;;;;;5.28;4.78;;;;;;;;;;5091534;28;20392;-73
2023/02/27 04:53:57;;;;;;;5.45;4.55;;;;;;;;;;5087088;28;20037;-73
2023/02/27 04:56:24;;;;;;;4.45;4.10;;;;;;;;;;5091457;28;20583;-73
2023/02/27 04:58:55;;;;;;;4.28;3.95;;;;;;;;;;5092291;28;20039;-75
2023/02/27 05:01:30;;;;;;;5.18;4.78;;;;;;;;;;5074363;28;20032;-74
2023/02/27 05:03:57;;;;;;;5.80;5.30;;;;;;;;;;5076045;28;20422;-75
2023/02/27 05:06:24;;;;;;;7.78;7.07;;;;;;;;;;5111553;28;20036;-74
2023/02/27 05:09:06;;;;;;;5.10;4.65;;;;;;;;;;5075052;28;20031;-74
2023/02/27 05:11:57;;;;;;;5.45;4.40;;;;;;;;;;5068978;28;20054;-73
2023/02/27 05:14:26;;;;;;;8.43;6.03;;;;;;;;;;5107096;28;20755;-73
2023/02/27 05:16:59;;;;;;;6.90;6.30;;;;;;;;;;5090234;28;20583;-73
2023/02/27 05:19:25;;;;;;;4.93;4.57;;;;;;;;;;5108248;28;20035;-73
2023/02/27 05:25:18;;;;;;;4.40;4.00;;;;;;;;;;5013814;28;20038;-79
2023/02/27 05:27:48;;;;;;;4.28;3.97;;;;;;;;;;5078249;28;20188;-79
2023/02/27 05:30:14;;;;;;;5.47;4.97;;;;;;;;;;5042112;28;20725;-79
2023/02/27 05:32:45;;;;;;;4.75;4.35;;;;;;;;;;5090352;28;20105;-79
2023/02/27 05:35:37;;;;;;;5.18;4.63;;;;;;;;;;5039169;28;20534;-77
2023/02/27 05:38:10;;;;;;;5.75;5.35;;;;;;;;;;5048675;28;20059;-78
2023/02/27 05:40:37;;;;;;;6.50;6.00;;;;;;;;;;5067045;28;20118;-75
2023/02/27 05:43:04;;;;;;;6.38;5.88;;;;;;;;;;5095954;28;20027;-75
2023/02/27 05:45:31;;;;;;;5.78;5.28;;;;;;;;;;5071769;28;20040;-76
2023/02/27 05:48:01;;;;;;;5.65;5.25;;;;;;;;;;5077462;28;20031;-77
2023/02/27 05:50:28;;;;;;;6.13;5.07;;;;;;;;;;5082937;28;20048;-76
2023/02/27 05:52:54;;;;;;;4.53;4.13;;;;;;;;;;5082903;28;20043;-77
2023/02/27 05:55:21;;;;;;;5.55;5.05;;;;;;;;;;5073848;28;20043;-77
2023/02/27 05:57:52;;;;;;;6.05;5.55;;;;;;;;;;5029669;28;20407;-76
2023/02/27 06:00:33;;;;;;;3.20;3.00;;;;;;;;;;5073113;28;20454;-72
2023/02/27 06:02:59;;;;;;;5.35;4.90;;;;;;;;;;5070359;28;20530;-73
2023/02/27 06:05:25;;;;;;;4.68;4.32;;;;;;;;;;5083103;28;20043;-72
2023/02/27 06:07:51;;;;;;;5.60;5.15;;;;;;;;;;5068976;28;20655;-73
2023/02/27 06:10:18;;;;;;;5.57;5.15;;;;;;;;;;5089678;28;20078;-73
2023/02/27 06:12:44;;;;;;;5.38;4.97;;;;;;;;;;5083691;28;20031;-74
2023/02/27 06:15:10;;;;;;;5.47;4.97;;;;;;;;;;5087360;28;20094;-74
2023/02/27 06:17:36;;;;;;;5.55;5.00;;;;;;;;;;5085772;28;20122;-73
2023/02/27 06:20:03;;;;;;;4.53;4.22;;;;;;;;;;5082069;28;20130;-72
2023/02/27 06:22:29;;;;;;;5.63;5.18;;;;;;;;;;5079698;28;20445;-72
2023/02/27 06:24:55;;;;;;;5.10;4.65;;;;;;;;;;5073922;28;20134;-72
2023/02/27 06:27:21;;;;;;;3.63;3.42;;;;;;;;;;5090643;28;20122;-73
2023/02/27 06:29:46;;;;;;;5.05;4.65;;;;;;;;;;5088071;28;20063;-72
2023/02/27 06:32:12;;;;;;;7.72;5.40;;;;;;;;;;5103490;28;20035;-72
2023/02/27 06:34:38;;;;;;;4.75;4.40;;;;;;;;;;5074321;28;20059;-71
2023/02/27 06:37:04;;;;;;;4.93;4.57;;;;;;;;;;5084524;28;20070;-72
2023/02/27 06:39:31;;;;;;;4.88;4.47;;;;;;;;;;5069604;28;20123;-72
2023/02/27 06:41:57;;;;;;;6.35;4.43;;;;;;;;;;5104051;28;20179;-71
2023/02/27 06:44:26;;;;;;;5.25;4.72;;;;;;;;;;5081591;28;20026;-71
2023/02/27 06:46:52;;;;;;;5.30;5.00;;;;;;;;;;5075921;28;20724;-71
2023/02/27 06:49:18;;;;;;;5.03;4.63;;;;;;;;;;5087494;28;20028;-74
2023/02/27 06:51:47;;;;;;;6.20;5.70;;;;;;;;;;5094243;28;20040;-74
2023/02/27 06:54:13;;;;;;;6.05;5.13;;;;;;;;;;5072624;28;20085;-73
2023/02/27 06:56:39;;;;;;;6.07;4.72;;;;;;;;;;5104047;28;20028;-73
2023/02/27 06:59:08;;;;;;;5.78;5.28;;;;;;;;;;5085920;28;20089;-73
2023/02/27 07:01:34;;;;;;;5.80;3.38;;;;;;;;;;5076428;28;20084;-74
2023/02/27 07:04:00;;;;;;;5.55;5.15;;;;;;;;;;5100429;28;20060;-72
2023/02/27 07:06:26;;;;;;;4.55;4.25;;;;;;;;;;5094294;28;20038;-73
2023/02/27 07:08:52;;;;;;;8.00;5.40;;;;;;;;;;5100547;28;20036;-73
2023/02/27 07:11:17;;;;;;;6.03;5.53;;;;;;;;;;5090527;28;20560;-71
2023/02/27 07:13:43;;;;;;;6.28;5.80;;;;;;;;;;5106888;28;20032;-72
2023/02/27 07:16:09;;;;;;;5.05;4.65;;;;;;;;;;5106173;28;20031;-73
2023/02/27 07:18:35;;;;;;;4.35;4.00;;;;;;;;;;5100776;28;20036;-73
2023/02/27 07:21:03;;;;;;;4.55;4.20;;;;;;;;;;5092730;28;20024;-72
2023/02/27 07:23:29;;;;;;;5.40;4.82;;;;;;;;;;5089651;28;20070;-72
2023/02/27 07:25:55;;;;;;;4.38;4.07;;;;;;;;;;5104147;28;20513;-72
2023/02/27 07:28:21;;;;;;;5.78;5.28;;;;;;;;;;5096962;28;20483;-72
2023/02/27 07:30:48;;;;;;;5.85;5.38;;;;;;;;;;5108909;28;20064;-72
2023/02/27 07:33:14;;;;;;;4.15;3.85;;;;;;;;;;5089995;28;20460;-72
2023/02/27 07:35:39;;;;;;;5.53;5.13;;;;;;;;;;5084759;28;20035;-73
2023/02/27 07:38:06;;;;;;;6.20;5.78;;;;;;;;;;5097650;28;20039;-72
2023/02/27 07:40:32;;;;;;;6.63;6.03;;;;;;;;;;5103866;28;20028;-76
2023/02/27 07:42:58;;;;;;;4.15;3.92;;;;;;;;;;5075108;28;20050;-77
2023/02/27 07:45:24;;;;;;;4.00;3.03;;;;;;;;;;5087247;28;20032;-77
2023/02/27 07:47:50;;;;;;;4.22;3.92;;;;;;;;;;5089941;28;20028;-75
2023/02/27 07:53:29;;;;;;;6.65;4.90;;;;;;;;;;5089571;28;20067;-74
2023/02/27 07:55:55;;;;;;;5.38;4.85;;;;;;;;;;5084541;28;20066;-74
2023/02/27 07:58:21;;;;;;;4.25;3.95;;;;;;;;;;5095910;28;20088;-74
2023/02/27 08:00:47;;;;;;;4.38;3.72;;;;;;;;;;5077667;28;20040;-75
2023/02/27 08:03:13;;;;;;;6.00;5.32;;;;;;;;;;5102529;28;20139;-74
2023/02/27 08:05:39;;;;;;;4.43;3.92;;;;;;;;;;5084867;28;20519;-74
2023/02/27 08:08:05;;;;;;;4.43;4.13;;;;;;;;;;5102836;28;20082;-74
2023/02/27 08:10:31;;;;;;;3.85;3.65;;;;;;;;;;5088734;28;20044;-74
2023/02/27 08:12:57;;;;;;;5.28;4.40;;;;;;;;;;5084203;28;20031;-74
2023/02/27 08:15:23;;;;;;;5.07;4.68;;;;;;;;;;5101331;28;20036;-74
2023/02/27 08:17:49;;;;;;;5.43;5.03;;;;;;;;;;5088974;28;20035;-73
2023/02/27 08:20:15;;;;;;;3.40;3.15;;;;;;;;;;5094626;28;20167;-72
2023/02/27 08:22:41;;;;;;;5.65;5.25;;;;;;;;;;5095648;28;20066;-72
2023/02/27 08:25:09;;;;;;;5.80;5.32;;;;;;;;;;5083564;28;20086;-72
2023/02/27 08:27:36;;;;;;;3.83;3.63;;;;;;;;;;5083144;28;20029;-76
2023/02/27 08:30:03;;;;;;;4.28;3.97;;;;;;;;;;5053930;28;20180;-75
2023/02/27 08:32:30;;;;;;;4.88;4.47;;;;;;;;;;5085474;28;20027;-75
2023/02/27 08:34:56;;;;;;;3.30;3.05;;;;;;;;;;5103616;28;20362;-75
2023/02/27 08:37:22;;;;;;;2.95;2.85;;;;;;;;;;5101843;28;20635;-72
2023/02/27 08:39:48;;;;;;;5.05;4.65;;;;;;;;;;5084872;28;20594;-73
2023/02/27 08:42:14;;;;;;;3.80;3.55;;;;;;;;;;5088922;28;20047;-77
2023/02/27 08:44:40;;;;;;;4.28;3.90;;;;;;;;;;5084109;28;20055;-77
2023/02/27 08:47:06;;;;;;;3.85;3.13;;;;;;;;;;5102653;28;20032;-78
2023/02/27 08:49:32;;;;;;;3.47;3.17;;;;;;;;;;5077205;28;20600;-78
2023/02/27 08:51:59;;;;;;;4.05;3.75;;;;;;;;;;5079845;28;20504;-77
2023/02/27 08:54:26;;;;;;;3.00;2.80;;;;;;;;;;5095758;28;20055;-78
2023/02/27 08:56:56;;;;;;;5.07;4.57;;;;;;;;;;5055726;28;20192;-75
2023/02/27 08:59:22;;;;;;;4.55;4.10;;;;;;;;;;5100541;28;20035;-74
2023/02/27 09:01:48;;;;;;;3.90;3.70;;;;;;;;;;5100163;28;20031;-74
2023/02/27 09:04:15;;;;;;;3.80;3.50;;;;;;;;;;5075102;28;20211;-74
2023/02/27 09:06:41;;;;;;;5.13;4.45;;;;;;;;;;5102654;28;20074;-74
2023/02/27 09:09:07;;;;;;;3.90;3.60;;;;;;;;;;5110314;28;20097;-75
2023/02/27 09:11:33;;;;;;;3.50;3.20;;;;;;;;;;5094297;28;20503;-74
2023/02/27 09:13:58;;;;;;;6.10;5.63;;;;;;;;;;5096596;28;20106;-74
2023/02/27 09:16:24;;;;;;;4.70;4.32;;;;;;;;;;5073890;28;20127;-73
2023/02/27 09:18:50;;;;;;;2.35;2.25;;;;;;;;;;5074517;28;20074;-74
2023/02/27 09:21:16;;;;;;;4.57;4.20;;;;;;;;;;5090567;28;20032;-74
2023/02/27 09:23:42;;;;;;;4.68;4.32;;;;;;;;;;5071456;28;20035;-73
2023/02/27 09:26:09;;;;;;;3.92;3.58;;;;;;;;;;5071728;28;20600;-74
2023/02/27 09:28:35;;;;;;;5.10;4.25;;;;;;;;;;5108978;28;20036;-74
2023/02/27 09:31:02;;;;;;;4.43;3.90;;;;;;;;;;5095140;28;20044;-74
2023/02/27 09:33:28;;;;;;;4.30;4.00;;;;;;;;;;5090438;28;20638;-75
2023/02/27 09:35:54;;;;;;;5.93;4.13;;;;;;;;;;5095150;28;20044;-74
2023/02/27 09:38:20;;;;;;;4.00;3.70;;;;;;;;;;5090287;28;20076;-74
2023/02/27 09:40:46;;;;;;;4.93;4.10;;;;;;;;;;5094638;28;20507;-74
2023/02/27 09:43:16;;;;;;;4.20;3.90;;;;;;;;;;5082911;28;20036;-74
2023/02/27 09:45:43;;;;;;;3.28;3.08;;;;;;;;;;5053519;28;20111;-74
2023/02/27 09:48:09;;;;;;;4.15;3.85;;;;;;;;;;5056554;28;20058;-74
2023/02/27 09:50:37;;;;;;;3.72;3.42;;;;;;;;;;5112309;28;20066;-74
2023/02/27 09:53:05;;;;;;;3.92;3.63;;;;;;;;;;5077151;28;20058;-77
2023/02/27 09:55:53;;;;;;;3.88;3.03;;;;;;;;;;5058741;28;20085;-75
2023/02/27 09:58:19;;;;;;;3.10;2.80;;;;;;;;;;5111490;28;20027;-75
2023/02/27 10:00:47;;;;;;;4.30;4.00;;;;;;;;;;5080444;28;20035;-74
2023/02/27 10:03:19;;;;;;;3.97;3.58;;;;;;;;;;5078918;28;20051;-75
2023/02/27 10:05:59;;;;;;;3.95;3.65;;;;;;;;;;5042194;28;20032;-75
2023/02/27 10:08:26;;;;;;;3.38;3.17;;;;;;;;;;5067414;28;20571;-74
2023/02/27 10:10:59;;;;;;;3.30;3.08;;;;;;;;;;5071736;28;20036;-75
2023/02/27 10:13:44;;;;;;;4.07;3.78;;;;;;;;;;5071757;28;20024;-75
2023/02/27 10:16:11;;;;;;;3.17;2.97;;;;;;;;;;5081616;28;20081;-75
2023/02/27 10:18:39;;;;;;;3.67;3.45;;;;;;;;;;5082945;28;20389;-74
2023/02/27 10:21:06;;;;;;;4.10;3.70;;;;;;;;;;5085536;28;20055;-74
2023/02/27 10:23:38;;;;;;;3.58;3.38;;;;;;;;;;5073158;28;20526;-75
2023/02/27 10:26:04;;;;;;;4.60;4.28;;;;;;;;;;5091361;28;20096;-75
2023/02/27 10:28:29;;;;;;;4.88;4.47;;;;;;;;;;5082536;28;20043;-75
2023/02/27 10:30:57;;;;;;;4.82;4.43;;;;;;;;;;5039765;28;20063;-74
2023/02/27 10:33:26;;;;;;;4.57;4.18;;;;;;;;;;5073614;28;20058;-74
2023/02/27 10:35:52;;;;;;;3.67;3.47;;;;;;;;;;5086415;28;20652;-74
2023/02/27 10:38:30;;;;;;;3.47;3.28;;;;;;;;;;5081713;28;20039;-75
2023/02/27 10:40:56;;;;;;;4.25;3.90;;;;;;;;;;5074807;28;20127;-74
2023/02/27 10:43:22;;;;;;;3.58;3.38;;;;;;;;;;5071175;28;20041;-74
2023/02/27 10:45:48;;;;;;;2.75;2.63;;;;;;;;;;5075592;28;20047;-75
2023/02/27 10:48:15;;;;;;;4.63;4.30;;;;;;;;;;5054240;28;20029;-75
2023/02/27 10:50:41;;;;;;;4.35;4.05;;;;;;;;;;5052857;28;20044;-74
2023/02/27 10:53:21;;;;;;;4.40;3.80;;;;;;;;;;5057128;28;20028;-73
2023/02/27 10:55:56;;;;;;;4.43;4.10;;;;;;;;;;5076772;28;20051;-74
2023/02/27 10:58:22;;;;;;;5.13;4.75;;;;;;;;;;5039687;28;20094;-74
2023/02/27 11:00:55;;;;;;;5.15;4.75;;;;;;;;;;5065935;28;20457;-73
2023/02/27 11:03:23;;;;;;;5.70;4.63;;;;;;;;;;5054788;28;20076;-74
2023/02/27 11:05:56;;;;;;;2.92;2.72;;;;;;;;;;5069542;28;20065;-74
2023/02/27 11:08:23;;;;;;;5.00;4.60;;;;;;;;;;5058580;28;20036;-75
2023/02/27 11:10:54;;;;;;;3.45;3.25;;;;;;;;;;5055912;28;20566;-74
2023/02/27 11:13:20;;;;;;;6.80;4.57;;;;;;;;;;5032345;28;20029;-74
2023/02/27 11:15:59;;;;;;;4.57;4.22;;;;;;;;;;5045755;28;20036;-74
2023/02/27 11:18:27;;;;;;;4.50;4.20;;;;;;;;;;5032651;28;20021;-74
2023/02/27 11:21:14;;;;;;;3.67;3.40;;;;;;;;;;5062319;28;20090;-74
2023/02/27 11:23:56;;;;;;;3.85;3.55;;;;;;;;;;5041552;28;20051;-74
2023/02/27 11:26:21;;;;;;;;;;;;;;;;;;5050260;28;20535;-74
2023/02/27 11:29:01;;;;;;;4.50;4.10;;;;;;;;;;5051249;28;19913;-74
2023/02/27 11:31:29;;;;;;;4.47;4.18;;;;;;;;;;5051705;28;20044;-74
2023/02/27 11:33:55;;;;;;;5.47;5.03;;;;;;;;;;5057409;28;20032;-74
2023/02/27 11:36:23;;;;;;;5.25;4.55;;;;;;;;;;5049988;28;20036;-74
2023/02/27 11:38:51;;;;;;;4.70;4.30;;;;;;;;;;5032944;28;20020;-74
2023/02/27 11:41:17;;;;;;;3.50;3.20;;;;;;;;;;5026098;28;20029;-74
2023/02/27 11:43:47;;;;;;;3.97;3.67;;;;;;;;;;5035755;28;20536;-73
2023/02/27 11:46:17;;;;;;;4.90;4.50;;;;;;;;;;5048912;28;20045;-73
2023/02/27 11:48:46;;;;;;;3.22;3.03;;;;;;;;;;5056435;28;20028;-73
2023/02/27 11:51:18;;;;;;;4.65;4.18;;;;;;;;;;5056396;28;20138;-74
2023/02/27 11:53:44;;;;;;;3.88;3.58;;;;;;;;;;5059608;28;20591;-73
2023/02/27 11:56:12;;;;;;;2.85;2.65;;;;;;;;;;5050260;28;20144;-73
2023/02/27 11:58:41;;;;;;;3.47;3.17;;;;;;;;;;5060732;28;20171;-74
2023/02/27 12:01:27;;;;;;;4.55;4.15;;;;;;;;;;5050956;28;20055;-74
2023/02/27 12:04:05;;;;;;;8.07;4.50;;;;;;;;;;5090812;28;20042;-74
2023/02/27 12:06:36;;;;;;;3.20;3.00;;;;;;;;;;5094530;28;20041;-74
2023/02/27 12:09:10;;;;;;;5.22;3.85;;;;;;;;;;5077237;28;20036;-73
2023/02/27 12:11:37;;;;;;;4.20;3.90;;;;;;;;;;5062939;28;20051;-74
2023/02/27 12:14:04;;;;;;;3.10;2.90;;;;;;;;;;5107436;28;20057;-74
2023/02/27 12:16:52;;;;;;;5.15;4.35;;;;;;;;;;5058817;28;20054;-72
2023/02/27 12:19:19;;;;;;;6.75;4.07;;;;;;;;;;5075675;28;20028;-74
2023/02/27 12:21:46;;;;;;;3.47;3.17;;;;;;;;;;5085855;28;20051;-73
2023/02/27 12:24:15;;;;;;;4.63;4.32;;;;;;;;;;5038669;28;20830;-73
2023/02/27 12:26:45;;;;;;;2.78;2.65;;;;;;;;;;5107516;28;20035;-73
2023/02/27 12:29:11;;;;;;;4.22;3.92;;;;;;;;;;5107942;28;20035;-73
2023/02/27 12:31:40;;;;;;;4.25;3.92;;;;;;;;;;5089391;28;20422;-73
2023/02/27 12:34:12;;;;;;;5.35;4.28;;;;;;;;;;5105478;28;20487;-73
2023/02/27 12:36:38;;;;;;;4.65;4.22;;;;;;;;;;5101082;28;20522;-72
2023/02/27 12:39:11;;;;;;;3.67;3.45;;;;;;;;;;5083035;28;20016;-73
2023/02/27 12:41:49;;;;;;;4.85;4.13;;;;;;;;;;5069687;28;20120;-72
2023/02/27 12:44:24;;;;;;;4.05;3.75;;;;;;;;;;5103792;28;20074;-73
2023/02/27 12:47:23;;;;;;;3.75;3.50;;;;;;;;;;5067673;28;20545;-73
2023/02/27 12:49:52;;;;;;;4.80;4.45;;;;;;;;;;5016274;28;20131;-74
2023/02/27 12:52:22;;;;;;;6.43;5.93;;;;;;;;;;5083411;28;20465;-74
2023/02/27 12:54:55;;;;;;;4.30;3.95;;;;;;;;;;5081051;28;20035;-73
2023/02/27 12:57:21;;;;;;;4.22;3.92;;;;;;;;;;5084891;28;20043;-72
2023/02/27 12:59:50;;;;;;;3.97;3.72;;;;;;;;;;5083571;28;20677;-74
2023/02/27 13:02:34;;;;;;;3.67;3.38;;;;;;;;;;5054055;28;20630;-73
2023/02/27 13:05:06;;;;;;;3.42;3.15;;;;;;;;;;5087231;28;20039;-73
2023/02/27 13:07:32;;;;;;;3.28;3.05;;;;;;;;;;5096776;28;20062;-73
2023/02/27 13:09:59;;;;;;;3.85;3.55;;;;;;;;;;5082104;28;20036;-73
2023/02/27 13:12:33;;;;;;;5.10;4.70;;;;;;;;;;5052180;28;20038;-72
2023/02/27 13:15:20;;;;;;;4.43;4.03;;;;;;;;;;5080439;28;20020;-74
2023/02/27 13:17:49;;;;;;;3.42;3.20;;;;;;;;;;5067207;28;20081;-74
2023/02/27 13:20:21;;;;;;;3.92;3.72;;;;;;;;;;5052922;28;20089;-73
2023/02/27 13:23:11;;;;;;;3.80;3.42;;;;;;;;;;5107095;28;20035;-77
2023/02/27 13:26:34;;;;;;;4.65;4.35;;;;;;;;;;5112275;28;20048;-76
2023/02/27 13:29:01;;;;;;;3.33;3.13;;;;;;;;;;5057664;28;20088;-74
2023/02/27 13:31:36;;;;;;;4.35;4.10;;;;;;;;;;5058390;28;20508;-75
2023/02/27 13:34:06;;;;;;;4.40;3.83;;;;;;;;;;5078380;28;20063;-74
2023/02/27 13:36:38;;;;;;;4.60;4.20;;;;;;;;;;5093541;28;20050;-74
2023/02/27 13:39:25;;;;;;;3.40;3.20;;;;;;;;;;5058493;28;20586;-74
2023/02/27 13:41:50;;;;;;;3.50;3.25;;;;;;;;;;5111331;28;20027;-74
2023/02/27 13:44:20;;;;;;;3.28;3.08;;;;;;;;;;5111358;28;20035;-73
2023/02/27 13:46:46;;;;;;;4.38;4.07;;;;;;;;;;5093009;28;20055;-73
2023/02/27 13:49:12;;;;;;;4.45;4.05;;;;;;;;;;5111280;28;20066;-75
2023/02/27 13:51:40;;;;;;;4.60;4.30;;;;;;;;;;5110723;28;20040;-74
2023/02/27 13:54:12;;;;;;;4.07;3.78;;;;;;;;;;5093339;28;20031;-74
2023/02/27 13:56:58;;;;;;;5.82;3.45;;;;;;;;;;5111208;28;20041;-75
2023/02/27 13:59:33;;;;;;;3.63;3.33;;;;;;;;;;5092630;28;20046;-74
2023/02/27 14:02:00;;;;;;;2.88;2.67;;;;;;;;;;5111082;28;20059;-73
2023/02/27 14:04:26;;;;;;;5.03;3.97;;;;;;;;;;5092260;28;20625;-73
2023/02/27 14:06:57;;;;;;;5.63;4.07;;;;;;;;;;5077645;28;20111;-75
2023/02/27 14:09:24;;;;;;;4.82;4.43;;;;;;;;;;5057788;28;20055;-74
2023/02/27 14:11:52;;;;;;;4.97;4.57;;;;;;;;;;5090822;28;20054;-74
2023/02/27 14:14:54;;;;;;;4.70;4.32;;;;;;;;;;5098544;28;20031;-75
2023/02/27 14:17:35;;;;;;;4.82;4.43;;;;;;;;;;5005455;28;20030;-74
2023/02/27 14:20:18;;;;;;;4.80;4.40;;;;;;;;;;5078648;28;20047;-77
2023/02/27 14:23:07;;;;;;;4.22;3.92;;;;;;;;;;5072443;28;20131;-74
2023/02/27 14:25:34;;;;;;;3.28;3.08;;;;;;;;;;5052800;28;20036;-75
2023/02/27 14:28:01;;;;;;;5.30;4.90;;;;;;;;;;5073553;28;20107;-73
2023/02/27 14:30:28;;;;;;;5.93;5.10;;;;;;;;;;5083507;28;20536;-73
2023/02/27 14:32:56;;;;;;;4.18;3.75;;;;;;;;;;5081208;28;20031;-74
2023/02/27 14:35:22;;;;;;;6.32;4.65;;;;;;;;;;5064059;28;20048;-74
2023/02/27 14:37:47;;;;;;;4.10;3.80;;;;;;;;;;5090675;28;20028;-73
2023/02/27 14:40:20;;;;;;;3.80;3.60;;;;;;;;;;5066699;28;20071;-74
2023/02/27 14:42:47;;;;;;;4.40;4.10;;;;;;;;;;5063810;28;20039;-74
2023/02/27 14:45:13;;;;;;;7.03;4.40;;;;;;;;;;5095213;28;20044;-74
2023/02/27 14:47:39;;;;;;;4.35;3.38;;;;;;;;;;5092628;28;20036;-74
2023/02/27 14:50:06;;;;;;;6.70;6.10;;;;;;;;;;5078080;28;20035;-73
2023/02/27 14:52:40;;;;;;;3.28;3.05;;;;;;;;;;5073999;28;20032;-74
2023/02/27 14:55:16;;;;;;;5.55;5.05;;;;;;;;;;5091349;28;20035;-77
2023/02/27 14:57:52;;;;;;;6.38;5.10;;;;;;;;;;5071798;28;20499;-74
2023/02/27 15:00:31;;;;;;;4.93;4.53;;;;;;;;;;5090311;28;20534;-74
2023/02/27 15:02:58;;;;;;;6.13;5.57;;;;;;;;;;5071680;28;20028;-74
2023/02/27 15:05:26;;;;;;;4.97;4.47;;;;;;;;;;5081797;28;20063;-73